Time;durP1;ratioP1;P1;durP2;ratioP2;P2;SDS_P1;SDS_P2;PMS_P1;PMS_P2;Temp;Humidity;BMP_temperature;BMP_pressure;BME280_temperature;BME280_humidity;BME280_pressure;Samples;Min_cycle;Max_cycle;Signal;HPM_P1;HPM_P2
2022/10/22 00:00:40;;;;;;;6.40;3.90;;;;;;;3.92;63.60;99114.80;102321;1292;61158;-25
2022/10/22 00:03:07;;;;;;;8.60;4.00;;;;;;;3.91;63.70;99110.36;102366;1292;61898;-25
2022/10/22 00:05:35;;;;;;;8.90;3.40;;;;;;;3.90;63.88;99103.40;102344;1299;75436;-25
2022/10/22 00:08:02;;;;;;;8.30;3.40;;;;;;;3.89;63.86;99100.52;102347;1297;75609;-25
2022/10/22 00:10:29;;;;;;;10.50;3.70;;;;;;;3.89;63.80;99088.83;102381;1291;74299;-25
2022/10/22 00:12:59;;;;;;;8.40;4.40;;;;;;;3.89;64.00;99087.80;102382;1299;62464;-25
2022/10/22 00:15:26;;;;;;;7.50;4.00;;;;;;;3.89;63.90;99085.91;102360;1299;61897;-25
2022/10/22 00:17:55;;;;;;;8.20;3.50;;;;;;;3.88;64.08;99080.48;102375;1291;75422;-25
2022/10/22 00:20:26;;;;;;;6.20;3.40;;;;;;;3.88;63.61;99072.73;102351;1299;74700;-25
2022/10/22 00:30:36;;;;;;;7.50;3.90;;;;;;;3.92;64.02;99061.20;99241;1336;600142;-23
2022/10/22 00:33:03;;;;;;;6.10;4.00;;;;;;;3.90;63.85;99056.34;101378;1311;62221;-24
2022/10/22 00:35:30;;;;;;;6.80;3.40;;;;;;;3.89;63.94;99054.48;101303;1311;62430;-23
2022/10/22 00:37:57;;;;;;;7.30;4.00;;;;;;;3.89;63.61;99047.13;101068;1313;74556;-23
2022/10/22 00:40:24;;;;;;;8.70;4.50;;;;;;;3.89;63.69;99044.51;101245;1307;76778;-23
2022/10/22 00:42:51;;;;;;;8.80;4.00;;;;;;;3.87;64.02;99034.81;101219;1313;75218;-23
2022/10/22 00:45:23;;;;;;;7.10;3.30;;;;;;;3.85;64.02;99030.96;100750;1302;1610599;-24
2022/10/22 00:48:07;;;;;;;5.80;2.50;;;;;;;3.85;64.05;99021.90;101868;1306;62597;-24
2022/10/22 00:50:54;;;;;;;7.40;3.80;;;;;;;3.85;63.99;99023.10;101910;1297;74751;-24
2022/10/22 00:53:23;;;;;;;9.80;3.30;;;;;;;3.86;63.90;99024.23;101734;1308;74539;-24
2022/10/22 00:55:51;;;;;;;6.70;3.00;;;;;;;3.86;63.81;99017.02;101881;1304;74224;-23
2022/10/22 00:58:20;;;;;;;9.30;4.40;;;;;;;3.86;63.90;99014.09;101900;1302;61258;-24
2022/10/22 01:00:47;;;;;;;6.40;3.70;;;;;;;3.85;64.22;99017.59;101890;1301;61543;-25
2022/10/22 01:03:14;;;;;;;9.90;3.70;;;;;;;3.85;64.03;99025.14;101853;1298;75997;-24
2022/10/22 01:05:46;;;;;;;6.30;3.10;;;;;;;3.86;63.94;99018.76;101863;1302;76394;-24
2022/10/22 01:08:24;;;;;;;7.70;3.80;;;;;;;3.86;64.10;99017.54;101858;1308;75112;-25
2022/10/22 01:10:56;;;;;;;8.20;3.70;;;;;;;3.84;63.98;99023.33;101860;1294;62063;-25
2022/10/22 01:13:46;;;;;;;6.00;2.80;;;;;;;3.85;64.27;99018.30;101871;1302;62154;-25
2022/10/22 01:16:27;;;;;;;5.60;2.80;;;;;;;4.55;63.35;99019.55;101754;1302;75644;-24
2022/10/22 01:19:01;;;;;;;5.50;3.40;;;;;;;5.22;61.48;99014.88;101862;1297;76656;-25
2022/10/22 01:21:55;;;;;;;6.90;3.50;;;;;;;5.31;61.05;99019.63;101844;1297;74147;-24
2022/10/22 01:24:35;;;;;;;7.00;3.70;;;;;;;5.15;60.63;99012.52;101868;1294;62682;-24
2022/10/22 01:27:21;;;;;;;8.90;3.60;;;;;;;4.94;60.73;99006.34;101850;1303;61847;-24
2022/10/22 01:29:57;;;;;;;8.50;3.90;;;;;;;4.75;61.05;99000.41;101869;1297;74704;-24
2022/10/22 01:32:25;;;;;;;7.50;4.10;;;;;;;4.56;61.37;98991.81;101865;1302;76759;-24
2022/10/22 01:34:58;;;;;;;9.40;4.20;;;;;;;4.44;61.83;98991.49;101854;1305;73049;-24
2022/10/22 01:37:28;;;;;;;7.60;4.80;;;;;;;4.33;61.87;98988.51;101817;1302;61782;-24
2022/10/22 01:39:59;;;;;;;7.70;4.00;;;;;;;4.26;62.30;98990.59;101883;1296;61051;-25
2022/10/22 01:42:26;;;;;;;10.70;4.50;;;;;;;4.19;62.68;98991.33;101713;1302;75391;-25
2022/10/22 01:44:53;;;;;;;9.80;3.60;;;;;;;4.15;62.82;98998.80;101893;1305;76779;-24
2022/10/22 01:47:26;;;;;;;6.10;4.00;;;;;;;4.11;63.24;98998.50;101866;1302;74658;-25
2022/10/22 01:50:02;;;;;;;10.20;3.90;;;;;;;4.07;63.33;99006.44;101839;1298;61845;-25
2022/10/22 01:52:36;;;;;;;7.60;4.00;;;;;;;4.05;62.93;99013.96;101828;1300;61547;-25
2022/10/22 01:55:30;;;;;;;8.20;3.30;;;;;;;4.05;62.89;99012.24;101859;1302;74628;-25
2022/10/22 01:58:31;;;;;;;5.80;3.40;;;;;;;4.04;63.37;99016.92;101895;1297;75817;-25
2022/10/22 02:01:11;;;;;;;8.20;3.50;;;;;;;3.98;63.58;99024.08;101840;1305;75217;-24
2022/10/22 02:04:12;;;;;;;7.40;3.70;;;;;;;3.98;63.43;99015.51;101764;1300;61199;-24
2022/10/22 02:06:40;;;;;;;6.50;3.50;;;;;;;3.99;63.52;99013.56;101934;1297;62608;-24
2022/10/22 02:09:07;;;;;;;8.50;3.10;;;;;;;3.98;63.77;99013.29;101844;1303;73500;-24
2022/10/22 02:11:34;;;;;;;6.30;3.30;;;;;;;3.97;63.79;99009.88;101896;1302;76807;-24
2022/10/22 02:14:02;;;;;;;6.50;3.30;;;;;;;3.95;64.42;99006.57;101857;1298;74121;-25
2022/10/22 02:16:33;;;;;;;7.20;3.00;;;;;;;3.93;65.02;99007.18;101850;1302;61094;-24
2022/10/22 02:19:02;;;;;;;8.10;3.50;;;;;;;3.91;65.00;99011.79;101815;1301;61163;-24
2022/10/22 02:21:29;;;;;;;6.10;3.00;;;;;;;3.89;64.96;99011.36;101821;1306;75533;-25
2022/10/22 02:23:56;;;;;;;8.70;3.00;;;;;;;3.88;65.09;99006.75;101805;1295;75917;-25
2022/10/22 02:26:30;;;;;;;9.00;3.00;;;;;;;3.90;65.15;99006.16;101853;1294;73292;-24
2022/10/22 02:29:02;;;;;;;5.00;3.10;;;;;;;4.53;65.45;99003.20;101873;1305;61824;-24
2022/10/22 02:31:31;;;;;;;8.10;3.30;;;;;;;5.27;63.85;98994.59;101847;1304;62858;-24
2022/10/22 02:34:01;;;;;;;8.00;3.40;;;;;;;5.48;62.53;98997.23;101744;1306;74183;-25
2022/10/22 02:36:28;;;;;;;4.90;3.00;;;;;;;5.44;62.46;98991.15;101891;1305;76692;-24
2022/10/22 02:38:55;;;;;;;6.10;3.30;;;;;;;5.28;62.40;98985.91;101808;1304;74203;-24
2022/10/22 02:41:23;;;;;;;8.30;3.30;;;;;;;5.13;62.93;98985.27;101847;1304;62865;-24
2022/10/22 02:43:52;;;;;;;6.20;3.50;;;;;;;4.95;63.26;98992.52;101757;1308;62629;-24
2022/10/22 02:46:20;;;;;;;6.90;3.20;;;;;;;4.80;63.64;98994.79;101820;1300;75581;-25
2022/10/22 02:48:47;;;;;;;8.30;3.10;;;;;;;4.66;63.47;98998.20;101901;1305;75734;-24
2022/10/22 02:51:14;;;;;;;7.00;3.20;;;;;;;4.55;63.68;99000.17;101873;1305;73879;-25
2022/10/22 02:53:41;;;;;;;5.00;3.20;;;;;;;4.45;63.90;98996.92;101865;1298;62308;-24
2022/10/22 02:56:08;;;;;;;4.80;3.20;;;;;;;4.31;64.15;98983.61;101807;1305;62156;-25
2022/10/22 02:58:35;;;;;;;7.00;4.00;;;;;;;4.17;64.47;98975.66;101951;1304;75702;-24
2022/10/22 03:01:02;;;;;;;9.30;4.50;;;;;;;4.04;64.94;98971.23;101930;1298;76485;-24
2022/10/22 03:03:29;;;;;;;9.90;3.80;;;;;;;3.94;65.30;98976.39;101878;1296;74972;-24
2022/10/22 03:05:56;;;;;;;10.00;4.40;;;;;;;3.86;65.22;98975.98;101949;1297;61775;-25
2022/10/22 03:08:23;;;;;;;6.50;3.70;;;;;;;3.79;65.27;98978.95;102028;1294;62509;-24
2022/10/22 03:10:50;;;;;;;7.80;3.70;;;;;;;3.69;65.22;98974.13;101937;1295;74364;-25
2022/10/22 03:13:17;;;;;;;10.60;4.10;;;;;;;3.62;65.32;98976.06;101971;1301;74882;-24
2022/10/22 03:15:44;;;;;;;8.80;3.50;;;;;;;3.54;65.49;98977.48;101961;1303;73911;-24
2022/10/22 03:18:11;;;;;;;7.40;3.70;;;;;;;3.47;66.04;98977.56;102059;1302;61105;-24
2022/10/22 03:20:38;;;;;;;4.90;2.60;;;;;;;3.40;66.16;98974.48;101915;1297;62593;-24
2022/10/22 03:23:05;;;;;;;6.50;2.60;;;;;;;3.89;66.35;98974.06;101925;1302;74326;-24
2022/10/22 03:25:33;;;;;;;7.50;3.60;;;;;;;4.63;64.80;98979.25;101850;1302;76761;-24
2022/10/22 03:28:03;;;;;;;8.60;3.50;;;;;;;4.82;63.65;98977.96;101995;1288;74317;-25
2022/10/22 03:30:30;;;;;;;10.40;3.30;;;;;;;4.71;63.60;98978.44;101864;1294;63117;-24
2022/10/22 03:32:57;;;;;;;7.30;4.10;;;;;;;4.53;63.55;98977.75;101951;1302;61752;-24
2022/10/22 03:35:24;;;;;;;5.60;3.10;;;;;;;4.30;64.10;98973.18;101952;1301;74523;-24
2022/10/22 03:37:51;;;;;;;6.40;3.00;;;;;;;4.10;64.32;98970.35;101899;1305;74706;-24
2022/10/22 03:40:18;;;;;;;8.10;3.50;;;;;;;3.93;64.99;98969.73;102020;1302;74365;-24
2022/10/22 03:42:45;;;;;;;7.60;4.00;;;;;;;3.77;65.47;98967.20;101968;1302;62145;-24
2022/10/22 03:45:12;;;;;;;6.60;3.60;;;;;;;3.61;65.75;98967.16;101969;1298;61954;-24
2022/10/22 03:47:39;;;;;;;7.10;4.00;;;;;;;3.50;66.00;98962.99;101942;1295;75582;-24
2022/10/22 03:50:08;;;;;;;10.30;4.50;;;;;;;3.41;66.40;98961.06;102023;1304;76465;-25
2022/10/22 03:52:37;;;;;;;9.70;5.40;;;;;;;3.32;66.87;98953.94;101841;1301;75246;-24
2022/10/22 03:55:05;;;;;;;8.60;5.00;;;;;;;3.26;67.33;98950.16;101947;1302;61084;-25
2022/10/22 03:57:32;;;;;;;9.40;4.90;;;;;;;3.20;67.68;98948.06;101883;1305;62640;-25
2022/10/22 03:59:59;;;;;;;6.60;3.20;;;;;;;3.20;68.13;98952.88;101960;1297;75556;-25
2022/10/22 04:02:26;;;;;;;5.90;3.20;;;;;;;3.77;67.78;98950.55;101934;1297;76502;-24
2022/10/22 04:04:53;;;;;;;6.80;3.30;;;;;;;4.42;65.83;98948.82;101928;1303;75131;-24
2022/10/22 04:07:20;;;;;;;7.20;4.00;;;;;;;4.60;64.96;98949.12;101957;1302;62214;-24
2022/10/22 04:09:47;;;;;;;9.60;5.00;;;;;;;4.53;64.59;98944.54;101908;1302;62932;-25
2022/10/22 04:12:14;;;;;;;9.30;4.70;;;;;;;4.42;64.82;98944.02;101881;1304;75548;-24
2022/10/22 04:14:41;;;;;;;7.80;4.70;;;;;;;4.27;65.08;98947.79;101964;1302;76500;-24
2022/10/22 04:17:08;;;;;;;11.10;4.60;;;;;;;4.11;65.63;98947.14;101933;1302;74167;-25
2022/10/22 04:19:35;;;;;;;9.30;4.20;;;;;;;3.97;66.25;98940.84;101880;1298;61842;-25
2022/10/22 04:22:02;;;;;;;8.60;3.80;;;;;;;3.85;66.66;98936.16;102185;1302;62821;-24
2022/10/22 04:24:30;;;;;;;7.90;3.30;;;;;;;3.76;67.11;98931.20;102288;1294;75420;-25
2022/10/22 04:26:57;;;;;;;10.10;3.80;;;;;;;3.67;67.41;98934.77;102158;1305;75096;-25
2022/10/22 04:29:24;;;;;;;7.20;3.30;;;;;;;3.60;67.83;98940.76;102278;1292;74115;-24
2022/10/22 04:31:51;;;;;;;6.30;3.80;;;;;;;3.55;67.77;98939.49;102327;1300;61768;-24
2022/10/22 04:34:19;;;;;;;6.00;2.60;;;;;;;3.53;68.34;98938.75;102268;1294;61801;-25
2022/10/22 04:36:46;;;;;;;8.80;2.80;;;;;;;4.10;68.07;98937.69;102139;1300;75810;-25
2022/10/22 04:39:13;;;;;;;6.40;2.40;;;;;;;4.83;66.07;98935.07;102291;1299;76729;-24
2022/10/22 04:41:40;;;;;;;7.80;3.30;;;;;;;5.03;64.62;98927.33;102161;1294;74181;-24
2022/10/22 04:44:07;;;;;;;7.50;3.60;;;;;;;4.98;64.64;98925.09;102303;1301;61866;-24
2022/10/22 04:46:40;;;;;;;;;;;;;;;4.83;64.95;98930.09;102294;1302;62742;-24
2022/10/22 04:49:07;;;;;;;11.60;3.20;;;;;;;4.63;65.50;98927.64;102292;1300;75599;-24
2022/10/22 04:51:34;;;;;;;5.30;3.20;;;;;;;4.47;65.63;98926.33;102144;1294;77200;-24
2022/10/22 04:54:02;;;;;;;5.20;3.00;;;;;;;4.35;66.09;98922.42;102243;1302;74240;-25
2022/10/22 04:56:29;;;;;;;6.00;2.90;;;;;;;4.25;66.03;98925.20;102175;1301;61209;-25
2022/10/22 04:59:01;;;;;;;6.70;3.60;;;;;;;4.14;66.58;98918.58;102323;1300;61557;-24
2022/10/22 05:01:30;;;;;;;5.70;3.10;;;;;;;4.06;66.71;98917.15;102064;1302;76111;-25
2022/10/22 05:03:59;;;;;;;7.40;2.90;;;;;;;4.00;66.97;98918.84;102024;1305;76674;-25
2022/10/22 05:06:27;;;;;;;6.70;3.10;;;;;;;3.96;67.36;98918.41;102021;1295;73415;-25
2022/10/22 05:08:56;;;;;;;6.20;2.70;;;;;;;3.94;67.54;98914.72;102115;1305;62137;-24
2022/10/22 05:11:27;;;;;;;5.60;2.70;;;;;;;4.51;67.09;98920.45;102184;1299;62307;-24
2022/10/22 05:13:55;;;;;;;6.20;3.20;;;;;;;5.22;65.05;98916.38;102023;1302;76378;-24
2022/10/22 05:16:23;;;;;;;4.50;2.70;;;;;;;5.42;64.08;98915.20;102172;1296;76746;-25
2022/10/22 05:18:50;;;;;;;7.00;3.30;;;;;;;5.32;63.78;98913.86;102206;1302;74177;-24
2022/10/22 05:21:18;;;;;;;5.40;3.10;;;;;;;5.20;64.08;98924.81;102157;1295;62828;-24
2022/10/22 05:23:47;;;;;;;4.50;3.10;;;;;;;5.05;64.52;98922.44;102151;1301;62704;-24
2022/10/22 05:26:16;;;;;;;4.40;2.80;;;;;;;4.91;64.96;98924.80;102043;1301;75328;-24
2022/10/22 05:28:43;;;;;;;5.60;2.50;;;;;;;4.77;65.50;98930.95;101998;1297;77121;-24
2022/10/22 05:31:11;;;;;;;6.00;3.10;;;;;;;4.64;65.66;98932.39;102078;1302;75090;-24
2022/10/22 05:33:38;;;;;;;8.60;2.90;;;;;;;4.52;65.78;98927.11;102117;1298;61228;-25
2022/10/22 05:36:06;;;;;;;7.10;2.60;;;;;;;4.41;66.44;98922.58;102132;1294;62430;-25
2022/10/22 05:38:34;;;;;;;4.10;2.60;;;;;;;4.33;66.74;98936.10;102046;1296;75047;-25
2022/10/22 05:41:08;;;;;;;11.20;3.70;;;;;;;4.26;66.11;98939.54;102331;1293;75811;-24
2022/10/22 05:43:36;;;;;;;10.30;3.20;;;;;;;4.23;66.56;98932.70;101953;1304;75390;-25
2022/10/22 05:46:11;;;;;;;8.60;3.70;;;;;;;4.19;67.44;98929.34;102232;1299;61967;-24
2022/10/22 05:48:38;;;;;;;5.10;2.40;;;;;;;4.20;67.44;98936.33;102044;1299;62575;-25
2022/10/22 05:51:11;;;;;;;5.10;2.80;;;;;;;4.84;66.83;98934.17;102136;1299;75993;-24
2022/10/22 05:53:40;;;;;;;8.20;4.20;;;;;;;5.54;64.86;98922.70;101916;1297;76014;-24
2022/10/22 05:56:09;;;;;;;6.30;3.60;;;;;;;5.70;63.71;98925.14;102194;1295;74970;-24
2022/10/22 05:58:36;;;;;;;6.70;3.00;;;;;;;5.62;63.98;98927.05;101960;1304;62703;-24
2022/10/22 06:01:14;;;;;;;6.60;3.20;;;;;;;5.48;64.48;98926.70;102127;1302;62830;-24
2022/10/22 06:03:42;;;;;;;8.70;3.60;;;;;;;5.29;64.30;98914.96;102020;1297;76331;-24
2022/10/22 06:06:16;;;;;;;5.80;2.90;;;;;;;5.16;64.88;98914.85;102061;1301;75725;-24
2022/10/22 06:08:44;;;;;;;8.30;3.10;;;;;;;5.00;64.46;98929.25;101953;1302;73988;-24
2022/10/22 06:11:11;;;;;;;7.40;3.70;;;;;;;4.95;64.50;98937.33;102026;1300;61187;-24
2022/10/22 06:13:38;;;;;;;8.10;3.90;;;;;;;4.87;65.19;98937.92;102247;1299;62901;-24
2022/10/22 06:16:06;;;;;;;6.60;3.00;;;;;;;4.86;65.19;98937.85;102177;1298;75295;-24
2022/10/22 06:18:33;;;;;;;12.40;2.60;;;;;;;4.80;65.48;98948.50;102347;1294;75717;-24
2022/10/22 06:21:08;;;;;;;8.30;5.10;;;;;;;4.67;65.32;98962.86;102285;1298;75040;-25
2022/10/22 10:24:37;;;;;;;6.80;3.90;;;;;;;11.23;53.03;98913.11;99581;1324;615038;-26
2022/10/22 10:27:35;;;;;;;7.50;4.50;;;;;;;11.37;51.50;98916.58;101403;1311;61862;-25
2022/10/22 10:30:09;;;;;;;7.70;4.60;;;;;;;11.50;51.70;98909.17;101082;1311;61923;-26
2022/10/22 10:32:47;;;;;;;7.50;4.40;;;;;;;11.80;50.87;98912.67;101137;1314;73891;-25
2022/10/22 10:35:22;;;;;;;9.30;4.40;;;;;;;12.34;49.38;98913.41;100993;1307;74855;-25
2022/10/22 10:38:12;;;;;;;8.60;4.10;;;;;;;13.00;48.67;98909.19;100438;1309;1184476;-25
2022/10/22 10:40:48;;;;;;;6.20;4.30;;;;;;;13.61;47.59;98902.55;101574;1309;61850;-24
2022/10/22 10:43:24;;;;;;;10.20;5.30;;;;;;;14.05;46.46;98895.51;101369;1308;61044;-25
2022/10/22 10:46:08;;;;;;;10.60;4.20;;;;;;;14.40;44.96;98889.12;101682;1308;73759;-26
2022/10/22 10:48:38;;;;;;;8.90;4.40;;;;;;;14.72;44.35;98884.17;101392;1309;75769;-26
2022/10/22 10:51:07;;;;;;;11.00;4.30;;;;;;;15.07;44.19;98876.15;101398;1312;73232;-25
2022/10/22 10:53:52;;;;;;;11.90;4.70;;;;;;;15.24;42.80;98869.88;101339;1310;61909;-25
2022/10/22 10:56:42;;;;;;;7.80;4.10;;;;;;;15.15;43.34;98866.55;101295;1308;61867;-25
2022/10/22 10:59:20;;;;;;;10.00;4.20;;;;;;;15.15;43.14;98861.50;101337;1309;74519;-25
2022/10/22 11:02:12;;;;;;;10.00;4.50;;;;;;;15.49;42.95;98865.99;101242;1311;75816;-24
2022/10/22 11:04:58;;;;;;;7.60;4.20;;;;;;;15.80;42.50;98871.02;101468;1312;74331;-24
2022/10/22 11:07:29;;;;;;;9.20;4.10;;;;;;;15.72;42.01;98862.19;101642;1308;61811;-24
2022/10/22 11:10:15;;;;;;;8.70;4.40;;;;;;;15.72;42.89;98859.96;101451;1311;61886;-24
2022/10/22 11:12:44;;;;;;;10.50;4.50;;;;;;;15.71;42.67;98853.23;105031;1304;74214;-25
2022/10/22 11:15:31;;;;;;;9.30;4.10;;;;;;;15.76;42.23;98845.59;105052;1307;75214;-25
2022/10/22 11:18:23;;;;;;;6.30;3.30;;;;;;;15.88;42.37;98840.42;105230;1305;73877;-25
2022/10/22 11:20:50;;;;;;;5.50;3.20;;;;;;;15.90;41.71;98837.21;104994;1305;60343;-25
2022/10/22 11:23:27;;;;;;;7.60;3.80;;;;;;;15.63;42.19;98838.34;105303;1302;60898;-25
2022/10/22 11:25:53;;;;;;;6.90;3.40;;;;;;;15.38;41.70;98836.93;105024;1304;74231;-25
2022/10/22 11:28:23;;;;;;;7.80;3.60;;;;;;;15.02;41.95;98835.07;105241;1301;75203;-25
2022/10/22 11:30:56;;;;;;;10.00;3.60;;;;;;;14.67;42.89;98830.88;105237;1300;72501;-25
2022/10/22 11:33:24;;;;;;;11.00;3.80;;;;;;;14.39;42.83;98831.23;104998;1305;61263;-25
2022/10/22 11:35:51;;;;;;;6.60;3.50;;;;;;;14.22;43.65;98834.85;104793;1307;61188;-25
2022/10/22 11:38:21;;;;;;;8.50;3.60;;;;;;;14.27;43.92;98831.24;105001;1305;73055;-25
2022/10/22 11:41:05;;;;;;;10.90;3.40;;;;;;;14.49;44.55;98828.54;105014;1300;75231;-26
2022/10/22 11:43:52;;;;;;;;;;;;;;;14.71;43.37;98820.34;105090;1297;71664;-25
2022/10/22 11:46:21;;;;;;;7.20;4.20;;;;;;;14.67;42.59;98812.77;104691;1304;61536;-25
2022/10/22 11:49:12;;;;;;;7.70;4.00;;;;;;;14.51;43.96;98813.44;105283;1300;61365;-27
2022/10/22 11:51:41;;;;;;;5.30;3.20;;;;;;;14.80;43.49;98813.19;105320;1302;73074;-25
2022/10/22 11:54:33;;;;;;;9.30;3.50;;;;;;;14.88;42.61;98816.21;105052;1301;74735;-25
2022/10/22 11:57:26;;;;;;;6.40;3.50;;;;;;;14.62;42.20;98822.34;105276;1307;73827;-25
2022/10/22 11:59:58;;;;;;;8.40;3.20;;;;;;;14.62;42.40;98825.24;105684;1296;61351;-25
2022/10/22 12:02:28;;;;;;;8.00;4.00;;;;;;;14.44;42.57;98832.46;105530;1296;61218;-25
2022/10/22 12:05:15;;;;;;;8.20;3.20;;;;;;;14.46;43.88;98841.75;105658;1298;73965;-25
2022/10/22 12:07:55;;;;;;;6.60;2.70;;;;;;;14.28;42.80;98855.19;105694;1295;74220;-25
2022/10/22 12:10:28;;;;;;;6.80;2.90;;;;;;;14.21;43.19;98868.19;105654;1301;73976;-25
2022/10/22 12:12:57;;;;;;;8.80;4.30;;;;;;;14.20;43.77;98872.94;105676;1299;61419;-25
2022/10/22 12:15:27;;;;;;;8.50;4.40;;;;;;;14.17;43.23;98879.39;105576;1297;61235;-25
2022/10/22 12:17:58;;;;;;;6.40;3.90;;;;;;;14.27;43.56;98876.73;105708;1291;74113;-25
2022/10/22 12:20:26;;;;;;;5.40;3.20;;;;;;;14.37;44.23;98869.81;105586;1296;74318;-25
2022/10/22 12:22:54;;;;;;;7.70;3.70;;;;;;;14.52;43.50;98857.41;105542;1299;72589;-25
2022/10/22 12:25:22;;;;;;;7.70;3.90;;;;;;;14.69;43.63;98855.53;105536;1302;60141;-26
2022/10/22 12:27:53;;;;;;;11.00;3.90;;;;;;;14.84;42.68;98853.81;105552;1297;60317;-25
2022/10/22 12:30:22;;;;;;;12.40;3.10;;;;;;;14.99;43.24;98842.17;105670;1294;73216;-25
2022/10/22 12:32:56;;;;;;;5.30;3.10;;;;;;;15.20;43.88;98827.25;105551;1292;74382;-25
2022/10/22 12:35:24;;;;;;;6.00;3.40;;;;;;;15.43;42.97;98816.80;105633;1297;73902;-25
2022/10/22 12:38:00;;;;;;;6.90;3.40;;;;;;;15.56;42.36;98804.80;105662;1299;60287;-25
2022/10/22 12:40:28;;;;;;;6.40;3.00;;;;;;;15.74;42.03;98802.20;105654;1291;61667;-25
2022/10/22 12:42:57;;;;;;;8.30;3.50;;;;;;;15.74;40.43;98802.55;105451;1296;73109;-25
2022/10/22 12:45:29;;;;;;;6.00;3.10;;;;;;;15.55;41.52;98795.64;105547;1297;75857;-25
2022/10/22 12:48:01;;;;;;;8.50;4.00;;;;;;;15.32;42.51;98788.91;105454;1299;74155;-25
2022/10/22 12:50:41;;;;;;;4.80;2.70;;;;;;;15.20;42.74;98785.42;105372;1292;61522;-25
2022/10/22 12:53:21;;;;;;;7.40;3.40;;;;;;;15.22;42.80;98782.67;105572;1298;60127;-25
2022/10/22 12:55:49;;;;;;;7.60;3.50;;;;;;;15.36;42.83;98774.73;105660;1295;72919;-25
2022/10/22 16:58:32;;;;;;;16.40;8.70;;;;;;;8.96;62.31;98736.05;99616;1319;615141;-24
2022/10/22 17:01:00;;;;;;;17.00;7.30;;;;;;;8.95;62.62;98737.52;101386;1313;62016;-23
2022/10/22 17:03:27;;;;;;;17.00;8.10;;;;;;;8.97;62.57;98733.16;101363;1311;61763;-24
2022/10/22 17:05:57;;;;;;;22.90;9.60;;;;;;;9.02;62.68;98732.80;101645;1306;73716;-24
2022/10/22 17:08:24;;;;;;;17.10;9.10;;;;;;;9.05;62.42;98730.83;101251;1309;75940;-24
2022/10/22 17:10:53;;;;;;;20.90;9.20;;;;;;;9.11;62.05;98730.34;100575;1309;1319077;-24
2022/10/22 17:13:20;;;;;;;26.00;9.60;;;;;;;9.17;61.81;98727.77;102308;1292;61164;-24
2022/10/22 17:15:47;;;;;;;23.00;10.40;;;;;;;9.24;61.33;98728.42;102356;1298;61905;-23
2022/10/22 17:18:14;;;;;;;20.40;10.90;;;;;;;9.31;61.02;98722.14;102226;1298;72794;-24
2022/10/22 17:20:44;;;;;;;24.90;11.70;;;;;;;9.38;60.58;98718.33;102263;1302;75646;-23
2022/10/22 17:23:11;;;;;;;23.30;9.40;;;;;;;9.47;60.46;98715.38;102046;1302;74306;-24
2022/10/22 17:25:42;;;;;;;20.50;9.50;;;;;;;9.53;60.34;98716.19;102292;1298;61869;-24
2022/10/22 17:28:10;;;;;;;26.00;12.00;;;;;;;9.59;60.16;98708.81;101975;1303;61864;-24
2022/10/22 17:30:39;;;;;;;17.70;7.50;;;;;;;9.64;59.81;98709.45;102282;1293;74467;-24
2022/10/22 17:33:07;;;;;;;18.40;8.90;;;;;;;9.70;59.18;98706.88;102310;1305;75760;-24
2022/10/22 17:55:29;;;;;;;22.10;9.30;;;;;;;9.91;59.03;98699.55;100618;1317;61307;-24
2022/10/22 17:57:57;;;;;;;19.00;8.60;;;;;;;9.92;59.13;98696.18;100735;1317;61892;-24
2022/10/22 18:00:24;;;;;;;14.50;7.00;;;;;;;9.92;59.00;98696.52;100750;1316;72660;-24
2022/10/22 18:02:51;;;;;;;18.70;8.50;;;;;;;9.93;59.17;98699.41;100717;1317;75750;-23
2022/10/22 18:05:18;;;;;;;15.40;8.30;;;;;;;9.93;59.27;98696.98;100166;1315;1226101;-23
2022/10/22 18:07:45;;;;;;;20.20;7.30;;;;;;;9.94;59.15;98696.86;100616;1314;61803;-24
2022/10/22 18:10:12;;;;;;;17.30;8.60;;;;;;;9.95;59.47;98694.38;101086;1314;62073;-24
2022/10/22 18:12:40;;;;;;;15.80;8.20;;;;;;;9.95;59.59;98698.84;101026;1313;73963;-24
2022/10/22 18:15:09;;;;;;;18.10;8.00;;;;;;;9.96;59.63;98697.40;101025;1307;75710;-25
2022/10/22 18:17:38;;;;;;;13.10;6.40;;;;;;;9.97;60.09;98698.23;100712;1314;74207;-24
2022/10/22 18:20:07;;;;;;;20.40;7.80;;;;;;;9.98;59.55;98697.08;101297;1309;61929;-23
2022/10/22 18:22:34;;;;;;;19.90;7.90;;;;;;;10.05;59.36;98699.80;101372;1311;61760;-23
2022/10/22 18:25:01;;;;;;;16.20;7.00;;;;;;;10.11;59.76;98697.19;101576;1308;74575;-24
2022/10/22 18:27:28;;;;;;;17.50;8.00;;;;;;;10.15;59.45;98700.02;101581;1308;75649;-24
2022/10/22 18:29:55;;;;;;;17.10;7.80;;;;;;;10.17;59.35;98698.93;101430;1309;74325;-23
2022/10/22 18:32:25;;;;;;;20.50;9.20;;;;;;;10.20;59.58;98695.75;101742;1308;61714;-23
2022/10/22 18:34:52;;;;;;;16.40;8.20;;;;;;;10.23;59.67;98694.44;101879;1305;61694;-23
2022/10/22 18:37:19;;;;;;;19.50;7.70;;;;;;;10.27;59.96;98696.73;101685;1300;74545;-24
2022/10/22 18:39:46;;;;;;;16.80;8.10;;;;;;;10.25;59.91;98699.80;101912;1304;74706;-23
2022/10/22 18:42:13;;;;;;;17.50;9.00;;;;;;;10.25;60.39;98698.95;101903;1305;74252;-24
2022/10/22 18:44:45;;;;;;;18.20;9.40;;;;;;;10.24;60.94;98697.80;101880;1294;61967;-24
2022/10/22 18:47:12;;;;;;;21.70;9.20;;;;;;;10.21;61.74;98697.89;101869;1305;61865;-24
2022/10/22 18:49:39;;;;;;;16.60;9.30;;;;;;;10.20;61.86;98697.11;101441;1306;74159;-24
2022/10/22 18:52:06;;;;;;;20.40;9.60;;;;;;;10.20;62.17;98700.76;102331;1301;75029;-23
2022/10/22 18:54:34;;;;;;;21.60;10.40;;;;;;;10.17;62.74;98695.98;102019;1295;74391;-24
2022/10/22 18:57:01;;;;;;;19.80;10.20;;;;;;;10.12;63.37;98699.86;102293;1294;61841;-23
2022/10/22 18:59:29;;;;;;;20.60;10.70;;;;;;;10.11;62.93;98700.81;102084;1302;61171;-24
2022/10/22 19:01:58;;;;;;;16.30;8.70;;;;;;;10.09;63.59;98702.38;102310;1294;73357;-23
2022/10/22 19:04:35;;;;;;;24.10;10.50;;;;;;;10.08;63.65;98700.09;102136;1302;74258;-24
2022/10/22 19:07:06;;;;;;;23.60;9.60;;;;;;;10.08;64.07;98700.97;102178;1302;74189;-24
2022/10/22 19:09:34;;;;;;;22.40;8.80;;;;;;;10.12;64.42;98698.48;101905;1303;63523;-24
2022/10/22 19:12:01;;;;;;;20.50;9.90;;;;;;;10.58;64.21;98697.89;102077;1302;61885;-24
2022/10/22 19:14:28;;;;;;;22.00;10.70;;;;;;;10.88;63.84;98696.23;102171;1292;73396;-24
2022/10/22 19:16:57;;;;;;;22.90;10.40;;;;;;;10.92;63.70;98694.84;102242;1302;75830;-24
2022/10/22 19:19:24;;;;;;;22.20;9.70;;;;;;;10.81;63.68;98695.27;102293;1302;74095;-24
2022/10/22 19:21:52;;;;;;;22.80;11.00;;;;;;;10.59;64.80;98694.88;102252;1298;61790;-24
2022/10/22 19:24:20;;;;;;;22.70;11.50;;;;;;;10.39;65.65;98694.32;102340;1294;61878;-24
2022/10/22 19:26:48;;;;;;;22.00;10.90;;;;;;;10.24;66.64;98695.95;102311;1293;73739;-24
2022/10/22 19:29:17;;;;;;;21.10;10.20;;;;;;;10.14;66.77;98696.92;102150;1301;75922;-25
2022/10/22 19:31:46;;;;;;;25.30;10.90;;;;;;;9.97;68.06;98697.19;101995;1302;73700;-24
2022/10/22 19:34:18;;;;;;;19.90;8.00;;;;;;;9.91;69.01;98695.22;102016;1302;63521;-24
2022/10/22 19:36:45;;;;;;;21.70;9.70;;;;;;;10.46;67.84;98694.99;102027;1302;61049;-24
2022/10/22 19:39:15;;;;;;;25.20;10.10;;;;;;;10.97;66.28;98696.77;102319;1298;74466;-25
2022/10/22 19:41:42;;;;;;;19.20;9.50;;;;;;;10.95;66.37;98697.17;101910;1298;75825;-24
2022/10/22 19:44:11;;;;;;;16.30;7.10;;;;;;;10.76;66.67;98697.08;102224;1294;74139;-24
2022/10/22 19:46:38;;;;;;;21.40;10.20;;;;;;;10.56;67.75;98697.07;102234;1295;61708;-24
2022/10/22 19:49:05;;;;;;;23.40;11.10;;;;;;;10.35;68.78;98698.80;102179;1302;61613;-24
2022/10/22 19:51:33;;;;;;;18.50;10.50;;;;;;;10.08;70.51;98703.32;102043;1295;73144;-24
2022/10/22 19:54:03;;;;;;;26.90;10.70;;;;;;;9.89;71.45;98704.96;102324;1301;76001;-24
2022/10/22 19:56:31;;;;;;;16.30;7.60;;;;;;;9.73;72.94;98701.73;101959;1298;74312;-24
2022/10/22 19:58:58;;;;;;;22.10;10.00;;;;;;;10.09;72.56;98702.74;102185;1301;61138;-25
2022/10/22 20:01:25;;;;;;;18.40;9.60;;;;;;;10.43;71.64;98707.85;102610;1291;61671;-25
2022/10/22 20:03:53;;;;;;;20.90;10.80;;;;;;;10.36;72.07;98706.69;102605;1297;74625;-24
2022/10/22 20:06:20;;;;;;;21.50;9.70;;;;;;;10.12;73.46;98706.13;102499;1297;75713;-25
2022/10/22 20:08:50;;;;;;;22.80;10.70;;;;;;;9.89;74.49;98705.13;102616;1289;74285;-28
2022/10/22 20:11:26;;;;;;;17.00;9.00;;;;;;;9.67;75.97;98708.31;102357;1298;63339;-28